createdAt,value
2022-12-31T00:00:09.489Z,99234.44
2022-12-31T00:02:37.138Z,99229.50
2022-12-31T00:05:05.079Z,99230.31
2022-12-31T00:10:05.190Z,99227.06
2022-12-31T00:12:32.716Z,99225.22
2022-12-31T00:15:00.199Z,99225.94
2022-12-31T00:17:27.829Z,99216.78
2022-12-31T00:19:55.304Z,99215.13
2022-12-31T00:22:22.848Z,99218.66
2022-12-31T00:24:50.344Z,99218.78
2022-12-31T00:27:17.881Z,99215.06
2022-12-31T00:29:45.330Z,99209.75
2022-12-31T00:32:12.969Z,99209.63
2022-12-31T00:34:40.466Z,99213.22
2022-12-31T00:37:08.021Z,99215.72
2022-12-31T00:39:35.581Z,99203.06
2022-12-31T00:42:03.078Z,99212.38
2022-12-31T00:44:30.693Z,99214.19
2022-12-31T00:46:58.419Z,99207.09
2022-12-31T00:49:25.879Z,99209.03
2022-12-31T00:51:53.347Z,99210.69
2022-12-31T00:54:20.904Z,99208.88
2022-12-31T00:56:51.208Z,99215.06
2022-12-31T00:59:18.877Z,99209.16
2022-12-31T01:01:46.564Z,99197.09
2022-12-31T01:04:17.466Z,99200.28
2022-12-31T01:06:45.781Z,99201.31
2022-12-31T01:09:15.244Z,99207.09
2022-12-31T01:11:43.756Z,99206.00
2022-12-31T01:14:16.886Z,99208.38
2022-12-31T01:16:50.333Z,99201.38
2022-12-31T01:19:27.893Z,99215.91
2022-12-31T01:21:56.543Z,99210.22
2022-12-31T01:24:24.679Z,99222.72
2022-12-31T01:26:58.042Z,99218.19
2022-12-31T01:29:27.032Z,99214.63
2022-12-31T01:31:54.511Z,99217.09
2022-12-31T01:34:22.037Z,99208.50
2022-12-31T01:36:49.974Z,99217.00
2022-12-31T01:39:17.685Z,99208.97
2022-12-31T01:41:47.271Z,99209.50
2022-12-31T01:44:27.309Z,99216.03
2022-12-31T01:47:02.255Z,99212.84
2022-12-31T01:49:38.861Z,99219.59
2022-12-31T01:52:12.251Z,99212.50
2022-12-31T01:54:45.001Z,99213.09
2022-12-31T01:57:14.908Z,99210.34
2022-12-31T01:59:43.474Z,99208.47
2022-12-31T02:02:12.441Z,99201.50
2022-12-31T02:04:40.189Z,99210.78
2022-12-31T02:07:09.799Z,99213.84
2022-12-31T02:09:40.855Z,99201.88
2022-12-31T02:12:10.068Z,99201.00
2022-12-31T02:14:56.615Z,99193.72
2022-12-31T02:18:05.419Z,99207.53
2022-12-31T02:20:35.973Z,99209.66
2022-12-31T02:23:06.304Z,99214.56
2022-12-31T02:26:04.776Z,99207.09
2022-12-31T02:28:57.718Z,99204.41
2022-12-31T02:31:33.502Z,99206.75
2022-12-31T02:34:04.075Z,99209.16
2022-12-31T02:36:35.878Z,99211.41
2022-12-31T02:39:06.254Z,99213.78
2022-12-31T02:41:51.997Z,99206.88
2022-12-31T02:44:31.604Z,99220.88
2022-12-31T02:47:08.246Z,99226.84
2022-12-31T02:49:38.696Z,99229.09
2022-12-31T02:52:44.125Z,99230.41
2022-12-31T02:55:35.517Z,99220.16
2022-12-31T02:58:56.479Z,99221.84
2022-12-31T03:01:49.321Z,99228.16
2022-12-31T03:04:34.203Z,99226.31
2022-12-31T03:07:13.667Z,99213.53
2022-12-31T03:09:41.358Z,99224.22
2022-12-31T03:12:29.453Z,99222.38
2022-12-31T03:14:57.285Z,99227.94
2022-12-31T03:17:25.162Z,99218.16
2022-12-31T03:20:11.867Z,99226.50
2022-12-31T03:22:42.856Z,99229.03
2022-12-31T03:25:33.270Z,99228.75
2022-12-31T03:28:03.819Z,99233.94
2022-12-31T03:30:32.466Z,99227.88
2022-12-31T03:33:00.907Z,99231.28
2022-12-31T03:35:29.835Z,99237.00
2022-12-31T03:37:57.929Z,99232.19
2022-12-31T03:40:27.344Z,99234.72
2022-12-31T03:42:55.036Z,99230.41
2022-12-31T03:45:23.948Z,99233.81
2022-12-31T03:47:51.572Z,99238.03
2022-12-31T03:50:19.777Z,99233.75
2022-12-31T03:52:48.080Z,99227.00
2022-12-31T03:55:15.690Z,99226.94
2022-12-31T03:57:43.409Z,99236.47
2022-12-31T04:00:14.718Z,99238.22
2022-12-31T04:02:42.696Z,99245.84
2022-12-31T04:05:11.515Z,99247.50
2022-12-31T04:07:39.713Z,99262.03
2022-12-31T04:10:09.533Z,99256.22
2022-12-31T04:12:37.422Z,99267.19
2022-12-31T04:15:06.405Z,99264.84
2022-12-31T04:17:34.588Z,99267.25
2022-12-31T04:20:04.280Z,99268.31
2022-12-31T04:22:31.960Z,99271.56
2022-12-31T04:24:59.393Z,99266.81
2022-12-31T04:27:27.042Z,99274.63
2022-12-31T04:29:54.835Z,99271.13
2022-12-31T04:32:22.443Z,99272.69
2022-12-31T04:34:49.894Z,99274.28
2022-12-31T04:37:17.402Z,99277.84
2022-12-31T04:39:44.845Z,99278.66
2022-12-31T04:42:12.668Z,99281.97
2022-12-31T04:44:40.217Z,99275.78
2022-12-31T04:47:07.936Z,99287.75
2022-12-31T04:49:35.524Z,99297.03
2022-12-31T04:52:03.384Z,99296.09
2022-12-31T04:54:30.828Z,99297.72
2022-12-31T04:56:58.350Z,99309.81
2022-12-31T04:59:25.943Z,99308.06
2022-12-31T05:01:53.686Z,99315.75
2022-12-31T05:04:21.371Z,99331.16
2022-12-31T05:06:48.999Z,99325.22
2022-12-31T05:09:16.510Z,99325.91
2022-12-31T05:11:44.105Z,99328.53
2022-12-31T05:14:11.605Z,99334.75
2022-12-31T05:16:39.212Z,99338.00
2022-12-31T05:19:09.649Z,99336.44
2022-12-31T05:21:37.302Z,99344.13
2022-12-31T05:24:05.340Z,99355.69
2022-12-31T05:26:33.304Z,99345.72
2022-12-31T05:29:00.846Z,99356.56
2022-12-31T05:31:28.425Z,99365.16
2022-12-31T05:33:55.962Z,99364.38
2022-12-31T05:36:23.744Z,99370.31
2022-12-31T05:38:51.174Z,99372.59
2022-12-31T05:41:18.806Z,99388.25
2022-12-31T05:43:46.280Z,99387.38
2022-12-31T05:46:13.996Z,99390.72
2022-12-31T05:48:41.535Z,99399.28
2022-12-31T05:51:09.029Z,99399.50
2022-12-31T05:53:36.523Z,99403.94
2022-12-31T05:56:04.157Z,99398.19
2022-12-31T05:58:31.915Z,99406.69
2022-12-31T06:00:59.587Z,99412.44
2022-12-31T06:03:27.137Z,99422.97
2022-12-31T06:05:54.750Z,99431.31
2022-12-31T06:08:24.055Z,99429.81
2022-12-31T06:10:51.739Z,99437.25
2022-12-31T06:13:19.243Z,99448.75
2022-12-31T06:15:46.849Z,99445.06
2022-12-31T06:18:14.345Z,99451.19
2022-12-31T06:20:41.985Z,99456.28
2022-12-31T06:23:09.566Z,99462.25
2022-12-31T06:25:37.270Z,99469.78
2022-12-31T06:28:05.524Z,99484.69
2022-12-31T06:30:33.135Z,99482.72
2022-12-31T06:33:00.628Z,99481.25
2022-12-31T06:35:30.883Z,99487.47
2022-12-31T06:37:58.466Z,99494.31
2022-12-31T06:40:26.132Z,99496.97
2022-12-31T06:42:59.900Z,99499.31
2022-12-31T06:45:28.343Z,99498.94
2022-12-31T06:47:55.910Z,99509.91
2022-12-31T06:50:23.440Z,99515.06
2022-12-31T06:52:50.880Z,99517.81
2022-12-31T06:55:18.939Z,99525.25
2022-12-31T06:57:46.619Z,99526.03
2022-12-31T07:00:14.949Z,99529.38
2022-12-31T07:02:51.508Z,99532.09
2022-12-31T07:05:33.185Z,99532.34
2022-12-31T07:08:19.166Z,99530.78
2022-12-31T07:11:14.584Z,99539.38
2022-12-31T07:14:07.167Z,99532.53
2022-12-31T07:16:58.864Z,99530.69
2022-12-31T07:19:45.439Z,99542.44
2022-12-31T07:22:15.983Z,99542.88
2022-12-31T07:24:44.749Z,99546.00
2022-12-31T07:27:53.656Z,99548.84
2022-12-31T07:31:16.377Z,99552.97
2022-12-31T07:33:43.849Z,99557.38
2022-12-31T07:36:47.391Z,99553.59
2022-12-31T07:39:45.033Z,99557.25
2022-12-31T07:42:59.225Z,99574.81
2022-12-31T07:45:48.632Z,99585.16
2022-12-31T07:48:24.762Z,99581.63
2022-12-31T07:50:57.529Z,99586.47
2022-12-31T07:53:25.898Z,99585.59
2022-12-31T07:55:59.887Z,99588.66
2022-12-31T07:58:36.541Z,99593.91
2022-12-31T08:01:05.631Z,99596.66
2022-12-31T08:04:04.238Z,99592.34
2022-12-31T08:06:46.622Z,99601.13
2022-12-31T08:09:26.729Z,99590.25
2022-12-31T08:11:59.500Z,99605.50
2022-12-31T08:14:29.065Z,99609.56
2022-12-31T08:16:57.797Z,99605.34
2022-12-31T08:19:31.789Z,99604.75
2022-12-31T08:22:23.203Z,99597.78
2022-12-31T08:25:19.681Z,99609.19
2022-12-31T08:28:25.671Z,99616.91
2022-12-31T08:31:30.308Z,99610.25
2022-12-31T08:34:53.297Z,99613.34
2022-12-31T08:37:41.921Z,99610.59
2022-12-31T08:40:27.926Z,99613.84
2022-12-31T08:43:12.942Z,99620.78
2022-12-31T08:45:47.646Z,99621.31
2022-12-31T08:48:40.644Z,99615.97
2022-12-31T08:51:25.907Z,99611.47
2022-12-31T08:53:55.378Z,99605.88
2022-12-31T08:56:32.610Z,99615.59
2022-12-31T08:59:15.030Z,99626.94
2022-12-31T09:02:14.343Z,99631.38
2022-12-31T09:05:05.329Z,99635.81
2022-12-31T09:07:43.492Z,99628.75
2022-12-31T09:10:50.937Z,99636.69
2022-12-31T09:13:21.109Z,99638.06
2022-12-31T09:15:58.800Z,99649.13
2022-12-31T09:18:32.891Z,99652.47
2022-12-31T09:21:01.054Z,99657.09
2022-12-31T09:23:28.838Z,99654.66
2022-12-31T09:26:00.206Z,99652.63
2022-12-31T09:28:43.922Z,99663.06
2022-12-31T09:31:40.383Z,99665.34
2022-12-31T09:34:37.477Z,99663.69
2022-12-31T09:37:18.048Z,99661.84
2022-12-31T09:39:48.023Z,99652.03
2022-12-31T09:42:43.249Z,99669.47
2022-12-31T09:45:35.715Z,99675.81
2022-12-31T09:48:18.392Z,99664.47
2022-12-31T09:50:58.139Z,99681.31
2022-12-31T09:53:47.054Z,99672.22
2022-12-31T09:56:35.465Z,99681.31
2022-12-31T09:59:10.693Z,99693.69
2022-12-31T10:02:01.722Z,99702.19
2022-12-31T10:05:02.123Z,99708.88
2022-12-31T10:07:45.991Z,99715.88
2022-12-31T10:10:30.889Z,99720.59
2022-12-31T10:13:16.671Z,99731.19
2022-12-31T10:16:08.528Z,99731.53
2022-12-31T10:18:53.401Z,99727.44
2022-12-31T10:21:33.038Z,99730.31
2022-12-31T10:24:08.915Z,99735.22
2022-12-31T10:27:08.181Z,99733.06
2022-12-31T10:29:47.662Z,99732.25
2022-12-31T10:32:31.695Z,99729.91
2022-12-31T10:35:15.988Z,99731.06
2022-12-31T10:38:02.963Z,99727.72
2022-12-31T10:41:08.654Z,99733.19
2022-12-31T10:43:51.386Z,99728.03
2022-12-31T10:46:47.489Z,99728.28
2022-12-31T10:49:24.152Z,99723.19
2022-12-31T10:51:53.968Z,99722.16
2022-12-31T10:54:36.351Z,99732.66
2022-12-31T10:57:25.356Z,99729.34
2022-12-31T11:00:13.988Z,99742.53
2022-12-31T11:03:12.562Z,99744.19
2022-12-31T11:05:58.785Z,99745.00
2022-12-31T11:08:45.007Z,99755.06
2022-12-31T11:11:40.914Z,99752.66
2022-12-31T11:14:23.312Z,99782.19
2022-12-31T11:16:57.207Z,99783.38
2022-12-31T11:19:57.621Z,99778.41
2022-12-31T11:22:43.707Z,99785.66
2022-12-31T11:25:11.224Z,99788.88
2022-12-31T11:27:49.270Z,99789.00
2022-12-31T11:30:35.207Z,99794.91
2022-12-31T11:33:24.464Z,99794.22
2022-12-31T11:36:13.110Z,99792.66
2022-12-31T11:38:51.709Z,99802.84
2022-12-31T11:41:22.460Z,99817.03
2022-12-31T11:44:13.318Z,99828.34
2022-12-31T11:46:53.367Z,99828.25
2022-12-31T11:49:40.521Z,99828.66
2022-12-31T11:52:48.528Z,99838.03
2022-12-31T11:55:34.033Z,99843.84
2022-12-31T11:58:16.646Z,99832.00
2022-12-31T12:00:55.520Z,99839.53
2022-12-31T12:03:24.773Z,99839.34
2022-12-31T12:05:52.458Z,99847.16
2022-12-31T12:08:22.844Z,99842.00
2022-12-31T12:10:56.319Z,99841.19
2022-12-31T12:13:26.150Z,99838.66
2022-12-31T12:15:58.978Z,99834.94
2022-12-31T12:18:42.700Z,99849.63
2022-12-31T12:21:20.969Z,99850.41
2022-12-31T12:24:29.138Z,99853.69
2022-12-31T12:26:57.890Z,99858.13
2022-12-31T12:29:35.375Z,99860.75
2022-12-31T12:32:05.516Z,99863.06
2022-12-31T12:34:40.893Z,99857.03
2022-12-31T12:37:29.446Z,99865.03
2022-12-31T12:40:02.400Z,99868.38
2022-12-31T12:42:33.131Z,99869.06
2022-12-31T12:45:14.561Z,99863.00
2022-12-31T12:47:47.909Z,99872.59
2022-12-31T12:50:23.590Z,99870.13
2022-12-31T12:52:59.945Z,99864.97
2022-12-31T12:55:39.928Z,99864.00
2022-12-31T12:58:19.059Z,99866.22
2022-12-31T13:00:51.533Z,99866.84
2022-12-31T13:04:23.443Z,99863.50
2022-12-31T13:07:13.870Z,99859.78
2022-12-31T13:09:50.181Z,99866.03
2022-12-31T13:13:22.620Z,99865.66
2022-12-31T13:15:52.888Z,99871.53
2022-12-31T13:18:41.947Z,99869.94
2022-12-31T13:21:28.219Z,99871.31
2022-12-31T13:24:37.143Z,99877.97
2022-12-31T13:27:10.335Z,99881.09
2022-12-31T13:29:39.772Z,99878.19
2022-12-31T13:32:11.061Z,99863.59
2022-12-31T13:34:44.277Z,99863.59
2022-12-31T13:37:39.832Z,99867.00
2022-12-31T13:40:20.065Z,99870.16
2022-12-31T13:42:57.520Z,99875.81
2022-12-31T13:45:30.745Z,99872.47
2022-12-31T13:48:07.188Z,99872.88
2022-12-31T13:50:51.930Z,99884.03
2022-12-31T13:53:26.857Z,99884.63
2022-12-31T13:56:04.450Z,99886.38
2022-12-31T13:58:57.167Z,99877.97
2022-12-31T14:01:34.112Z,99882.75
2022-12-31T14:04:25.287Z,99876.31
2022-12-31T14:07:00.522Z,99877.47
2022-12-31T14:09:34.754Z,99880.03
2022-12-31T14:12:18.077Z,99878.53
2022-12-31T14:15:12.855Z,99887.16
2022-12-31T14:18:08.363Z,99879.81
2022-12-31T14:20:54.300Z,99874.81
2022-12-31T14:23:46.113Z,99865.25
2022-12-31T14:26:43.022Z,99866.63
2022-12-31T14:29:10.449Z,99859.28
2022-12-31T14:31:51.623Z,99855.28
2022-12-31T14:34:56.354Z,99861.72
2022-12-31T14:37:44.069Z,99867.88
2022-12-31T14:40:39.313Z,99880.22
2022-12-31T14:43:21.799Z,99879.34
2022-12-31T14:46:29.956Z,99874.81
2022-12-31T14:49:06.208Z,99876.69
2022-12-31T14:51:36.124Z,99871.13
2022-12-31T14:54:03.994Z,99868.50
2022-12-31T14:56:41.198Z,99862.91
2022-12-31T14:59:27.406Z,99862.50
2022-12-31T15:01:58.328Z,99874.06
2022-12-31T15:04:41.950Z,99857.91
2022-12-31T15:07:44.516Z,99878.34
2022-12-31T15:10:44.153Z,99879.50
2022-12-31T15:13:38.827Z,99889.03
2022-12-31T15:16:12.189Z,99881.56
2022-12-31T15:18:54.610Z,99874.06
2022-12-31T15:21:36.748Z,99874.16
2022-12-31T15:24:17.994Z,99868.97
2022-12-31T15:26:54.928Z,99869.66
2022-12-31T15:29:32.011Z,99881.00
2022-12-31T15:32:03.117Z,99878.34
2022-12-31T15:34:36.236Z,99882.25
2022-12-31T15:37:26.560Z,99877.94
2022-12-31T15:40:16.743Z,99861.94
2022-12-31T15:42:55.169Z,99855.06
2022-12-31T15:45:42.599Z,99855.06
2022-12-31T15:48:22.203Z,99862.38
2022-12-31T15:50:57.188Z,99856.53
2022-12-31T15:53:32.737Z,99868.91
2022-12-31T15:56:02.124Z,99868.91
2022-12-31T15:58:36.081Z,99866.78
2022-12-31T16:01:27.855Z,99857.31
2022-12-31T16:04:20.289Z,99864.91
2022-12-31T16:06:50.885Z,99865.41
2022-12-31T16:09:26.781Z,99867.44
2022-12-31T16:11:56.481Z,99869.09
2022-12-31T16:14:50.697Z,99874.53
2022-12-31T16:17:35.791Z,99870.94
2022-12-31T16:20:22.906Z,99866.84
2022-12-31T16:22:57.640Z,99877.44
2022-12-31T16:25:31.474Z,99876.81
2022-12-31T16:28:02.708Z,99874.63
2022-12-31T16:30:32.602Z,99867.56
2022-12-31T16:33:03.051Z,99870.25
2022-12-31T16:35:33.286Z,99864.06
2022-12-31T16:38:19.521Z,99857.63
2022-12-31T16:41:17.747Z,99858.94
2022-12-31T16:43:47.794Z,99857.03
2022-12-31T16:46:27.167Z,99853.72
2022-12-31T16:49:06.745Z,99842.41
2022-12-31T16:51:37.510Z,99850.66
2022-12-31T16:54:05.219Z,99849.00
2022-12-31T16:56:39.381Z,99845.09
2022-12-31T16:59:17.721Z,99844.63
2022-12-31T17:01:45.857Z,99830.88
2022-12-31T17:04:21.866Z,99843.47
2022-12-31T17:06:49.495Z,99842.59
2022-12-31T17:09:22.514Z,99844.56
2022-12-31T17:11:52.212Z,99849.94
2022-12-31T17:14:23.312Z,99847.03
2022-12-31T17:17:09.356Z,99842.53
2022-12-31T17:19:49.113Z,99840.00
2022-12-31T17:22:32.926Z,99830.22
2022-12-31T17:25:28.841Z,99824.16
2022-12-31T17:27:59.488Z,99817.53
2022-12-31T17:30:30.598Z,99833.72
2022-12-31T17:33:25.572Z,99819.06
2022-12-31T17:36:12.465Z,99818.97
2022-12-31T17:38:42.455Z,99805.97
2022-12-31T17:41:23.569Z,99814.97
2022-12-31T17:43:54.460Z,99801.28
2022-12-31T17:46:24.212Z,99799.06
2022-12-31T17:49:02.435Z,99797.50
2022-12-31T17:51:29.958Z,99798.09
2022-12-31T17:54:00.879Z,99806.19
2022-12-31T17:56:29.025Z,99794.53
2022-12-31T17:58:56.539Z,99791.41
2022-12-31T18:01:24.409Z,99795.28
2022-12-31T18:03:51.983Z,99792.44
2022-12-31T18:06:19.902Z,99792.44
2022-12-31T18:08:47.742Z,99795.56
2022-12-31T18:11:18.471Z,99786.47
2022-12-31T18:13:46.275Z,99794.25
2022-12-31T18:16:14.566Z,99780.38
2022-12-31T18:18:42.492Z,99776.09
2022-12-31T18:21:19.911Z,99789.66
2022-12-31T18:23:48.474Z,99781.22
2022-12-31T18:26:18.434Z,99781.06
2022-12-31T18:28:46.558Z,99779.50
2022-12-31T18:31:21.363Z,99764.97
2022-12-31T18:33:55.825Z,99761.56
2022-12-31T18:36:28.046Z,99767.19
2022-12-31T18:38:56.075Z,99761.91
2022-12-31T18:41:27.873Z,99765.00
2022-12-31T18:43:56.099Z,99764.72
2022-12-31T18:46:25.106Z,99763.25
2022-12-31T18:48:54.088Z,99767.53
2022-12-31T18:51:31.444Z,99758.28
2022-12-31T18:54:01.071Z,99749.25
2022-12-31T18:56:29.044Z,99735.41
2022-12-31T18:58:57.350Z,99735.50
2022-12-31T19:01:25.500Z,99745.38
2022-12-31T19:03:55.683Z,99737.75
2022-12-31T19:06:24.164Z,99725.44
2022-12-31T19:08:52.192Z,99728.84
2022-12-31T19:11:21.436Z,99719.31
2022-12-31T19:13:49.497Z,99724.00
2022-12-31T19:16:19.523Z,99723.53
2022-12-31T19:18:47.665Z,99716.13
2022-12-31T19:21:22.992Z,99716.03
2022-12-31T19:23:51.536Z,99716.41
2022-12-31T19:26:21.552Z,99710.63
2022-12-31T19:28:51.008Z,99694.03
2022-12-31T19:31:18.717Z,99699.38
2022-12-31T19:33:46.346Z,99686.97
2022-12-31T19:36:19.185Z,99686.00
2022-12-31T19:38:47.233Z,99680.81
2022-12-31T19:41:19.823Z,99685.78
2022-12-31T19:43:48.155Z,99674.66
2022-12-31T19:46:18.447Z,99686.75
2022-12-31T19:48:46.492Z,99677.97
2022-12-31T19:51:18.879Z,99680.53
2022-12-31T19:53:48.001Z,99668.13
2022-12-31T19:56:19.662Z,99669.00
2022-12-31T19:58:47.633Z,99653.78
2022-12-31T20:01:24.461Z,99655.94
2022-12-31T20:03:52.143Z,99661.47
2022-12-31T20:06:20.047Z,99666.88
2022-12-31T20:08:47.880Z,99674.47
2022-12-31T20:11:21.088Z,99662.59
2022-12-31T20:13:49.774Z,99667.28
2022-12-31T20:16:19.036Z,99670.59
2022-12-31T20:18:48.020Z,99672.16
2022-12-31T20:21:20.833Z,99671.19
2022-12-31T20:23:50.187Z,99675.41
2022-12-31T20:26:18.507Z,99674.44
2022-12-31T20:28:46.198Z,99679.59
2022-12-31T20:31:16.829Z,99688.97
2022-12-31T20:33:44.878Z,99680.56
2022-12-31T20:36:15.305Z,99667.69
2022-12-31T20:38:43.014Z,99639.47
2022-12-31T20:41:16.202Z,99650.13
2022-12-31T20:43:44.794Z,99622.38
2022-12-31T20:46:20.584Z,99618.19
2022-12-31T20:48:50.165Z,99607.75
2022-12-31T20:51:19.739Z,99597.50
2022-12-31T20:53:52.284Z,99590.47
2022-12-31T20:56:20.166Z,99573.91
2022-12-31T20:58:47.724Z,99560.34
2022-12-31T21:01:16.895Z,99571.47
2022-12-31T21:04:06.010Z,99573.22
2022-12-31T21:06:35.220Z,99578.38
2022-12-31T21:09:04.740Z,99571.84
2022-12-31T21:11:54.122Z,99579.25
2022-12-31T21:14:22.052Z,99572.06
2022-12-31T21:16:49.860Z,99571.28
2022-12-31T21:19:17.386Z,99561.41
2022-12-31T21:21:44.891Z,99565.13
2022-12-31T21:24:12.439Z,99571.38
2022-12-31T21:26:39.918Z,99549.44
2022-12-31T21:29:07.523Z,99560.16
2022-12-31T21:31:35.128Z,99563.66
2022-12-31T21:34:02.793Z,99555.50
2022-12-31T21:36:30.407Z,99551.47
2022-12-31T21:38:58.112Z,99546.97
2022-12-31T21:41:44.089Z,99564.47
2022-12-31T21:44:11.986Z,99556.34
2022-12-31T21:46:54.608Z,99566.22
2022-12-31T21:49:27.409Z,99562.91
2022-12-31T21:52:13.240Z,99542.22
2022-12-31T21:55:01.126Z,99541.34
2022-12-31T21:57:46.205Z,99544.06
2022-12-31T22:00:42.839Z,99530.41
2022-12-31T22:03:24.503Z,99529.84
2022-12-31T22:05:55.184Z,99532.47
2022-12-31T22:08:24.947Z,99527.78
2022-12-31T22:10:53.194Z,99515.88
2022-12-31T22:13:21.326Z,99514.88
2022-12-31T22:16:00.411Z,99512.56
2022-12-31T22:18:30.320Z,99507.66
2022-12-31T22:21:05.059Z,99490.50
2022-12-31T22:23:36.571Z,99494.72
2022-12-31T22:26:05.954Z,99489.56
2022-12-31T22:28:39.589Z,99496.47
2022-12-31T22:31:13.948Z,99488.94
2022-12-31T22:33:42.744Z,99481.16
2022-12-31T22:36:16.346Z,99505.13
2022-12-31T22:38:44.916Z,99478.88
2022-12-31T22:41:12.345Z,99471.75
2022-12-31T22:43:43.906Z,99471.88
2022-12-31T22:46:11.453Z,99473.63
2022-12-31T22:48:42.255Z,99472.84
2022-12-31T22:51:11.202Z,99467.16
2022-12-31T22:53:41.476Z,99460.25
2022-12-31T22:56:11.341Z,99463.53
2022-12-31T22:58:39.033Z,99448.50
2022-12-31T23:01:08.898Z,99451.34
2022-12-31T23:03:36.504Z,99457.31
2022-12-31T23:06:04.260Z,99447.72
2022-12-31T23:08:31.893Z,99448.50
2022-12-31T23:11:00.098Z,99457.13
2022-12-31T23:13:51.072Z,99442.94
2022-12-31T23:16:38.342Z,99432.72
2022-12-31T23:19:25.672Z,99419.63
2022-12-31T23:22:11.883Z,99409.47
2022-12-31T23:24:39.558Z,99412.16
2022-12-31T23:27:07.948Z,99416.53
2022-12-31T23:29:46.657Z,99403.41
2022-12-31T23:32:16.957Z,99414.34
2022-12-31T23:34:45.877Z,99418.16
2022-12-31T23:37:14.554Z,99409.59
2022-12-31T23:39:42.841Z,99407.13
2022-12-31T23:42:10.430Z,99401.47
2022-12-31T23:44:38.059Z,99403.78
2022-12-31T23:47:05.621Z,99399.31
2022-12-31T23:49:33.219Z,99396.78
2022-12-31T23:52:00.839Z,99400.50
2022-12-31T23:54:28.809Z,99393.78
2022-12-31T23:56:56.362Z,99389.75
2022-12-31T23:59:23.914Z,99390.44
